sensor_id;sensor_type;location;lat;lon;timestamp;pressure;altitude;pressure_sealevel;temperature;humidity
35507;BME280;36461;52.018;21.036;2022-12-07T00:01:34;99587.39;;;2.70;85.77
35507;BME280;36461;52.018;21.036;2022-12-07T00:04:06;99589.09;;;2.69;85.78
35507;BME280;36461;52.018;21.036;2022-12-07T00:06:42;99586.16;;;2.65;85.78
35507;BME280;36461;52.018;21.036;2022-12-07T00:09:11;99579.33;;;2.66;85.99
35507;BME280;36461;52.018;21.036;2022-12-07T00:11:38;99576.30;;;2.68;86.01
35507;BME280;36461;52.018;21.036;2022-12-07T00:14:07;99569.03;;;2.69;86.03
35507;BME280;36461;52.018;21.036;2022-12-07T00:16:36;99566.44;;;2.71;85.99
35507;BME280;36461;52.018;21.036;2022-12-07T00:19:03;99565.56;;;2.73;86.16
35507;BME280;36461;52.018;21.036;2022-12-07T00:21:33;99568.07;;;2.76;86.28
35507;BME280;36461;52.018;21.036;2022-12-07T00:24:01;99562.08;;;2.77;86.25
35507;BME280;36461;52.018;21.036;2022-12-07T00:26:34;99562.94;;;2.76;86.23
35507;BME280;36461;52.018;21.036;2022-12-07T00:29:07;99563.36;;;2.77;86.31
35507;BME280;36461;52.018;21.036;2022-12-07T00:31:38;99562.06;;;2.79;86.42
35507;BME280;36461;52.018;21.036;2022-12-07T00:34:06;99557.77;;;2.81;86.49
35507;BME280;36461;52.018;21.036;2022-12-07T00:36:35;99551.34;;;2.82;86.64
35507;BME280;36461;52.018;21.036;2022-12-07T00:39:02;99555.99;;;2.84;86.71
35507;BME280;36461;52.018;21.036;2022-12-07T00:41:30;99548.72;;;2.85;86.75
35507;BME280;36461;52.018;21.036;2022-12-07T00:43:57;99546.63;;;2.83;86.77
35507;BME280;36461;52.018;21.036;2022-12-07T00:46:24;99542.31;;;2.85;87.14
35507;BME280;36461;52.018;21.036;2022-12-07T00:48:51;99547.39;;;2.90;87.27
35507;BME280;36461;52.018;21.036;2022-12-07T00:51:22;99553.33;;;2.92;87.35
35507;BME280;36461;52.018;21.036;2022-12-07T00:53:51;99555.45;;;2.94;87.28
35507;BME280;36461;52.018;21.036;2022-12-07T00:56:24;99561.85;;;2.93;87.39
35507;BME280;36461;52.018;21.036;2022-12-07T00:58:57;99561.02;;;2.92;87.51
35507;BME280;36461;52.018;21.036;2022-12-07T01:01:28;99563.98;;;2.95;87.58
35507;BME280;36461;52.018;21.036;2022-12-07T01:03:56;99569.02;;;2.99;87.75
35507;BME280;36461;52.018;21.036;2022-12-07T01:06:23;99566.83;;;3.05;87.76
35507;BME280;36461;52.018;21.036;2022-12-07T01:08:50;99568.09;;;3.07;87.67
35507;BME280;36461;52.018;21.036;2022-12-07T01:11:21;99565.05;;;3.09;87.67
35507;BME280;36461;52.018;21.036;2022-12-07T01:13:53;99568.87;;;3.12;87.68
35507;BME280;36461;52.018;21.036;2022-12-07T01:16:22;99569.67;;;3.14;87.77
35507;BME280;36461;52.018;21.036;2022-12-07T01:18:52;99574.34;;;3.17;87.79
35507;BME280;36461;52.018;21.036;2022-12-07T01:21:28;99566.22;;;3.16;87.79
35507;BME280;36461;52.018;21.036;2022-12-07T01:23:59;99561.95;;;3.17;87.90
35507;BME280;36461;52.018;21.036;2022-12-07T01:26:25;99561.48;;;3.19;88.04
35507;BME280;36461;52.018;21.036;2022-12-07T01:28:53;99559.73;;;3.23;88.12
35507;BME280;36461;52.018;21.036;2022-12-07T01:31:23;99561.79;;;3.26;88.19
35507;BME280;36461;52.018;21.036;2022-12-07T01:33:58;99553.20;;;3.30;88.27
35507;BME280;36461;52.018;21.036;2022-12-07T01:39:02;99556.52;;;3.35;88.22
35507;BME280;36461;52.018;21.036;2022-12-07T01:41:33;99554.76;;;3.39;88.35
35507;BME280;36461;52.018;21.036;2022-12-07T01:44:14;99555.95;;;3.44;88.53
35507;BME280;36461;52.018;21.036;2022-12-07T01:49:34;99550.79;;;3.47;88.37
35507;BME280;36461;52.018;21.036;2022-12-07T01:54:42;99546.85;;;3.51;88.51
35507;BME280;36461;52.018;21.036;2022-12-07T01:57:11;99540.41;;;3.53;88.51
35507;BME280;36461;52.018;21.036;2022-12-07T01:59:38;99543.84;;;3.53;88.40
35507;BME280;36461;52.018;21.036;2022-12-07T02:02:08;99538.73;;;3.52;88.29
35507;BME280;36461;52.018;21.036;2022-12-07T02:04:37;99541.33;;;3.49;88.31
35507;BME280;36461;52.018;21.036;2022-12-07T02:07:05;99534.14;;;3.45;88.26
35507;BME280;36461;52.018;21.036;2022-12-07T02:09:32;99541.42;;;3.44;88.38
35507;BME280;36461;52.018;21.036;2022-12-07T02:11:58;99534.14;;;3.44;88.26
35507;BME280;36461;52.018;21.036;2022-12-07T02:14:25;99544.41;;;3.44;88.26
35507;BME280;36461;52.018;21.036;2022-12-07T02:17:20;99536.36;;;3.41;88.20
35507;BME280;36461;52.018;21.036;2022-12-07T02:23:14;99541.45;;;3.43;88.25
35507;BME280;36461;52.018;21.036;2022-12-07T02:31:23;99534.20;;;3.41;88.21
35507;BME280;36461;52.018;21.036;2022-12-07T02:34:44;99536.80;;;3.39;88.14
35507;BME280;36461;52.018;21.036;2022-12-07T02:36:36;99534.30;;;3.36;88.08
35507;BME280;36461;52.018;21.036;2022-12-07T02:39:07;99532.71;;;3.27;87.77
35507;BME280;36461;52.018;21.036;2022-12-07T02:41:56;99529.37;;;3.22;87.91
35507;BME280;36461;52.018;21.036;2022-12-07T02:44:23;99527.67;;;3.23;87.89
35507;BME280;36461;52.018;21.036;2022-12-07T02:47:03;99527.70;;;3.21;87.90
35507;BME280;36461;52.018;21.036;2022-12-07T02:49:31;99526.89;;;3.17;87.73
35507;BME280;36461;52.018;21.036;2022-12-07T02:51:59;99526.47;;;3.16;87.74
35507;BME280;36461;52.018;21.036;2022-12-07T02:54:26;99520.92;;;3.15;87.95
35507;BME280;36461;52.018;21.036;2022-12-07T03:02:35;99524.80;;;3.14;87.84
35507;BME280;36461;52.018;21.036;2022-12-07T03:08:19;99514.66;;;3.08;87.73
35507;BME280;36461;52.018;21.036;2022-12-07T03:11:05;99512.98;;;3.05;87.72
35507;BME280;36461;52.018;21.036;2022-12-07T03:16:24;99516.86;;;3.04;87.70
35507;BME280;36461;52.018;21.036;2022-12-07T03:19:09;99503.67;;;2.98;87.56
35507;BME280;36461;52.018;21.036;2022-12-07T03:21:42;99511.87;;;2.94;87.52
35507;BME280;36461;52.018;21.036;2022-12-07T03:24:24;99511.86;;;2.93;87.68
35507;BME280;36461;52.018;21.036;2022-12-07T03:27:11;99513.13;;;2.96;87.77
35507;BME280;36461;52.018;21.036;2022-12-07T03:29:49;99508.02;;;2.94;87.75
35507;BME280;36461;52.018;21.036;2022-12-07T03:32:38;99512.64;;;2.98;88.00
35507;BME280;36461;52.018;21.036;2022-12-07T03:35:13;99511.34;;;3.01;87.82
35507;BME280;36461;52.018;21.036;2022-12-07T03:37:57;99507.11;;;2.98;87.77
35507;BME280;36461;52.018;21.036;2022-12-07T03:40:32;99507.05;;;3.01;87.80
35507;BME280;36461;52.018;21.036;2022-12-07T03:43:00;99506.59;;;3.02;87.70
35507;BME280;36461;52.018;21.036;2022-12-07T03:45:38;99500.67;;;3.00;87.57
35507;BME280;36461;52.018;21.036;2022-12-07T03:48:22;99502.36;;;2.99;87.56
35507;BME280;36461;52.018;21.036;2022-12-07T03:51:04;99496.84;;;2.98;87.49
35507;BME280;36461;52.018;21.036;2022-12-07T03:53:37;99501.20;;;2.93;87.14
35507;BME280;36461;52.018;21.036;2022-12-07T03:56:07;99496.13;;;2.90;87.32
35507;BME280;36461;52.018;21.036;2022-12-07T03:58:34;99503.00;;;2.87;87.12
35507;BME280;36461;52.018;21.036;2022-12-07T04:01:02;99496.67;;;2.80;87.06
35507;BME280;36461;52.018;21.036;2022-12-07T04:03:28;99493.33;;;2.75;87.15
35507;BME280;36461;52.018;21.036;2022-12-07T04:05:55;99494.64;;;2.74;87.16
35507;BME280;36461;52.018;21.036;2022-12-07T04:08:24;99489.12;;;2.71;87.23
35507;BME280;36461;52.018;21.036;2022-12-07T04:10:51;99487.45;;;2.70;87.27
35507;BME280;36461;52.018;21.036;2022-12-07T04:13:17;99485.69;;;2.72;87.37
35507;BME280;36461;52.018;21.036;2022-12-07T04:15:44;99490.37;;;2.74;87.20
35507;BME280;36461;52.018;21.036;2022-12-07T04:18:11;99486.11;;;2.73;87.21
35507;BME280;36461;52.018;21.036;2022-12-07T04:20:38;99489.04;;;2.77;87.24
35507;BME280;36461;52.018;21.036;2022-12-07T04:23:04;99486.08;;;2.75;87.02
35507;BME280;36461;52.018;21.036;2022-12-07T04:25:31;99488.72;;;2.68;86.73
35507;BME280;36461;52.018;21.036;2022-12-07T04:27:58;99489.64;;;2.66;86.88
35507;BME280;36461;52.018;21.036;2022-12-07T04:30:24;99485.75;;;2.69;86.94
35507;BME280;36461;52.018;21.036;2022-12-07T04:32:52;99485.80;;;2.64;86.63
35507;BME280;36461;52.018;21.036;2022-12-07T04:35:19;99481.56;;;2.63;86.63
35507;BME280;36461;52.018;21.036;2022-12-07T04:37:45;99480.72;;;2.61;86.62
35507;BME280;36461;52.018;21.036;2022-12-07T04:40:12;99482.50;;;2.56;86.61
35507;BME280;36461;52.018;21.036;2022-12-07T04:42:40;99489.72;;;2.60;86.78
35507;BME280;36461;52.018;21.036;2022-12-07T04:45:07;99486.30;;;2.61;86.76
35507;BME280;36461;52.018;21.036;2022-12-07T04:47:35;99484.64;;;2.57;86.64
35507;BME280;36461;52.018;21.036;2022-12-07T04:50:01;99483.34;;;2.58;86.63
35507;BME280;36461;52.018;21.036;2022-12-07T04:52:28;99479.55;;;2.54;86.48
35507;BME280;36461;52.018;21.036;2022-12-07T04:54:55;99481.27;;;2.53;86.66
35507;BME280;36461;52.018;21.036;2022-12-07T04:57:21;99483.78;;;2.56;86.81
35507;BME280;36461;52.018;21.036;2022-12-07T04:59:48;99477.40;;;2.55;86.61
35507;BME280;36461;52.018;21.036;2022-12-07T05:02:14;99474.45;;;2.52;86.61
35507;BME280;36461;52.018;21.036;2022-12-07T05:04:41;99474.45;;;2.52;86.56
35507;BME280;36461;52.018;21.036;2022-12-07T05:07:07;99469.38;;;2.49;86.54
35507;BME280;36461;52.018;21.036;2022-12-07T05:09:34;99465.97;;;2.47;86.35
35507;BME280;36461;52.018;21.036;2022-12-07T05:12:00;99463.88;;;2.45;86.53
35507;BME280;36461;52.018;21.036;2022-12-07T05:14:27;99463.02;;;2.44;86.50
35507;BME280;36461;52.018;21.036;2022-12-07T05:16:53;99462.63;;;2.42;86.44
35507;BME280;36461;52.018;21.036;2022-12-07T05:19:20;99465.68;;;2.38;86.38
35507;BME280;36461;52.018;21.036;2022-12-07T05:21:47;99464.84;;;2.36;86.31
35507;BME280;36461;52.018;21.036;2022-12-07T05:24:15;99459.72;;;2.36;86.37
35507;BME280;36461;52.018;21.036;2022-12-07T05:26:43;99459.33;;;2.35;86.24
35507;BME280;36461;52.018;21.036;2022-12-07T05:29:13;99458.07;;;2.32;86.24
35507;BME280;36461;52.018;21.036;2022-12-07T05:31:41;99456.42;;;2.28;86.24
35507;BME280;36461;52.018;21.036;2022-12-07T05:34:10;99454.72;;;2.27;86.26
35507;BME280;36461;52.018;21.036;2022-12-07T05:36:37;99456.89;;;2.26;86.32
35507;BME280;36461;52.018;21.036;2022-12-07T05:39:05;99460.26;;;2.28;86.37
35507;BME280;36461;52.018;21.036;2022-12-07T05:41:32;99454.28;;;2.29;86.37
35507;BME280;36461;52.018;21.036;2022-12-07T05:44:17;99455.61;;;2.26;86.22
35507;BME280;36461;52.018;21.036;2022-12-07T05:46:43;99456.05;;;2.24;86.44
35507;BME280;36461;52.018;21.036;2022-12-07T05:49:10;99463.29;;;2.26;86.47
35507;BME280;36461;52.018;21.036;2022-12-07T05:51:37;99466.66;;;2.28;86.52
35507;BME280;36461;52.018;21.036;2022-12-07T05:54:04;99464.55;;;2.27;86.41
35507;BME280;36461;52.018;21.036;2022-12-07T05:56:30;99464.97;;;2.28;86.53
35507;BME280;36461;52.018;21.036;2022-12-07T05:58:57;99466.22;;;2.30;86.46
35507;BME280;36461;52.018;21.036;2022-12-07T06:01:41;99463.66;;;2.30;86.35
35507;BME280;36461;52.018;21.036;2022-12-07T06:04:09;99466.61;;;2.31;86.34
35507;BME280;36461;52.018;21.036;2022-12-07T06:06:35;99461.10;;;2.30;86.35
35507;BME280;36461;52.018;21.036;2022-12-07T06:09:03;99460.63;;;2.32;86.32
35507;BME280;36461;52.018;21.036;2022-12-07T06:11:31;99460.21;;;2.31;86.28
35507;BME280;36461;52.018;21.036;2022-12-07T06:14:16;99455.56;;;2.29;86.33
35507;BME280;36461;52.018;21.036;2022-12-07T06:16:42;99453.83;;;2.29;86.27
35507;BME280;36461;52.018;21.036;2022-12-07T06:19:10;99450.88;;;2.28;86.17
35507;BME280;36461;52.018;21.036;2022-12-07T06:21:37;99455.61;;;2.26;86.26
35507;BME280;36461;52.018;21.036;2022-12-07T06:24:06;99458.14;;;2.27;86.36
35507;BME280;36461;52.018;21.036;2022-12-07T06:26:33;99456.89;;;2.26;86.26
35507;BME280;36461;52.018;21.036;2022-12-07T06:28:59;99451.78;;;2.23;86.24
35507;BME280;36461;52.018;21.036;2022-12-07T06:31:26;99451.78;;;2.23;86.24
35507;BME280;36461;52.018;21.036;2022-12-07T06:33:58;99453.06;;;2.23;86.34
35507;BME280;36461;52.018;21.036;2022-12-07T06:36:26;99456.49;;;2.23;86.43
35507;BME280;36461;52.018;21.036;2022-12-07T06:38:54;99450.09;;;2.23;86.29
35507;BME280;36461;52.018;21.036;2022-12-07T06:41:21;99449.22;;;2.23;86.33
35507;BME280;36461;52.018;21.036;2022-12-07T06:43:49;99461.54;;;2.28;86.47
35507;BME280;36461;52.018;21.036;2022-12-07T06:46:16;99459.84;;;2.27;86.23
35507;BME280;36461;52.018;21.036;2022-12-07T06:48:43;99463.29;;;2.26;86.35
35507;BME280;36461;52.018;21.036;2022-12-07T06:51:10;99456.84;;;2.29;86.25
35507;BME280;36461;52.018;21.036;2022-12-07T06:53:37;99455.14;;;2.28;86.11
35507;BME280;36461;52.018;21.036;2022-12-07T06:56:05;99457.75;;;2.25;86.14
35507;BME280;36461;52.018;21.036;2022-12-07T06:58:32;99453.44;;;2.27;86.28
35507;BME280;36461;52.018;21.036;2022-12-07T07:00:58;99451.72;;;2.29;86.37
35507;BME280;36461;52.018;21.036;2022-12-07T07:03:25;99455.95;;;2.31;86.28
35507;BME280;36461;52.018;21.036;2022-12-07T07:05:52;99452.52;;;2.31;86.07
35507;BME280;36461;52.018;21.036;2022-12-07T07:08:18;99458.12;;;2.29;86.08
35507;BME280;36461;52.018;21.036;2022-12-07T07:10:44;99461.13;;;2.27;86.02
35507;BME280;36461;52.018;21.036;2022-12-07T07:13:11;99461.13;;;2.27;86.18
35507;BME280;36461;52.018;21.036;2022-12-07T07:15:38;99461.54;;;2.28;86.21
35507;BME280;36461;52.018;21.036;2022-12-07T07:18:05;99459.82;;;2.30;86.30
35507;BME280;36461;52.018;21.036;2022-12-07T07:20:31;99459.77;;;2.33;86.16
35507;BME280;36461;52.018;21.036;2022-12-07T07:22:58;99455.14;;;2.28;86.17
35507;BME280;36461;52.018;21.036;2022-12-07T07:25:25;99461.94;;;2.30;86.33
35507;BME280;36461;52.018;21.036;2022-12-07T07:27:51;99464.03;;;2.34;86.34
35507;BME280;36461;52.018;21.036;2022-12-07T07:30:18;99457.21;;;2.33;86.14
35507;BME280;36461;52.018;21.036;2022-12-07T07:32:44;99463.61;;;2.33;86.07
35507;BME280;36461;52.018;21.036;2022-12-07T07:35:11;99466.22;;;2.30;86.10
35507;BME280;36461;52.018;21.036;2022-12-07T07:37:40;99469.62;;;2.30;86.24
35507;BME280;36461;52.018;21.036;2022-12-07T07:40:08;99464.05;;;2.32;86.32
35507;BME280;36461;52.018;21.036;2022-12-07T07:42:36;99460.14;;;2.37;86.33
35507;BME280;36461;52.018;21.036;2022-12-07T07:45:03;99458.86;;;2.37;86.16
35507;BME280;36461;52.018;21.036;2022-12-07T07:47:30;99457.52;;;2.40;86.20
35507;BME280;36461;52.018;21.036;2022-12-07T07:49:57;99458.78;;;2.43;86.31
35507;BME280;36461;52.018;21.036;2022-12-07T07:52:24;99461.34;;;2.43;86.10
35507;BME280;36461;52.018;21.036;2022-12-07T07:54:51;99462.16;;;2.45;85.99
35507;BME280;36461;52.018;21.036;2022-12-07T07:57:18;99463.39;;;2.48;86.15
35507;BME280;36461;52.018;21.036;2022-12-07T07:59:44;99459.94;;;2.53;86.13
35507;BME280;36461;52.018;21.036;2022-12-07T08:02:16;99467.97;;;2.58;86.16
35507;BME280;36461;52.018;21.036;2022-12-07T08:04:44;99467.91;;;2.61;85.96
35507;BME280;36461;52.018;21.036;2022-12-07T08:07:13;99469.14;;;2.64;85.95
35507;BME280;36461;52.018;21.036;2022-12-07T08:09:40;99465.69;;;2.67;85.80
35507;BME280;36461;52.018;21.036;2022-12-07T08:12:07;99470.03;;;2.63;85.71
35507;BME280;36461;52.018;21.036;2022-12-07T08:14:35;99469.59;;;2.64;85.74
35507;BME280;36461;52.018;21.036;2022-12-07T08:17:02;99465.77;;;2.62;85.69
35507;BME280;36461;52.018;21.036;2022-12-07T08:19:28;99470.03;;;2.62;85.94
35507;BME280;36461;52.018;21.036;2022-12-07T08:21:55;99469.22;;;2.60;85.90
35507;BME280;36461;52.018;21.036;2022-12-07T08:24:23;99477.33;;;2.61;85.94
35507;BME280;36461;52.018;21.036;2022-12-07T08:26:51;99476.05;;;2.61;86.00
35507;BME280;36461;52.018;21.036;2022-12-07T08:29:17;99477.72;;;2.63;86.12
35507;BME280;36461;52.018;21.036;2022-12-07T08:31:44;99479.81;;;2.65;86.00
35507;BME280;36461;52.018;21.036;2022-12-07T08:34:11;99481.56;;;2.63;85.79
35507;BME280;36461;52.018;21.036;2022-12-07T08:36:39;99478.55;;;2.64;85.97
35507;BME280;36461;52.018;21.036;2022-12-07T08:39:05;99485.04;;;2.59;85.88
35507;BME280;36461;52.018;21.036;2022-12-07T08:41:33;99479.91;;;2.59;86.02
35507;BME280;36461;52.018;21.036;2022-12-07T08:43:59;99484.56;;;2.61;86.19
35507;BME280;36461;52.018;21.036;2022-12-07T08:46:32;99488.38;;;2.63;86.14
35507;BME280;36461;52.018;21.036;2022-12-07T08:49:17;99484.52;;;2.66;86.22
35507;BME280;36461;52.018;21.036;2022-12-07T08:51:46;99489.17;;;2.68;86.27
35507;BME280;36461;52.018;21.036;2022-12-07T08:54:14;99486.50;;;2.76;86.47
35507;BME280;36461;52.018;21.036;2022-12-07T08:56:44;99488.06;;;2.84;86.43
35507;BME280;36461;52.018;21.036;2022-12-07T08:59:13;99484.56;;;2.92;86.34
35507;BME280;36461;52.018;21.036;2022-12-07T09:01:41;99484.92;;;2.96;86.25
35507;BME280;36461;52.018;21.036;2022-12-07T09:04:08;99486.51;;;3.03;86.34
35507;BME280;36461;52.018;21.036;2022-12-07T09:06:35;99485.55;;;3.10;86.31
35507;BME280;36461;52.018;21.036;2022-12-07T09:09:03;99484.22;;;3.13;86.00
35507;BME280;36461;52.018;21.036;2022-12-07T09:11:30;99479.89;;;3.17;86.09
35507;BME280;36461;52.018;21.036;2022-12-07T09:13:57;99473.81;;;3.23;86.05
35507;BME280;36461;52.018;21.036;2022-12-07T09:16:23;99477.69;;;3.21;85.91
35507;BME280;36461;52.018;21.036;2022-12-07T09:18:50;99469.09;;;3.22;85.83
35507;BME280;36461;52.018;21.036;2022-12-07T09:21:17;99464.86;;;3.19;85.86
35507;BME280;36461;52.018;21.036;2022-12-07T09:23:43;99469.87;;;3.27;86.17
35507;BME280;36461;52.018;21.036;2022-12-07T09:26:10;99462.50;;;3.34;86.18
35507;BME280;36461;52.018;21.036;2022-12-07T09:28:38;99455.06;;;3.43;86.28
35507;BME280;36461;52.018;21.036;2022-12-07T09:31:05;99457.08;;;3.50;86.10
35507;BME280;36461;52.018;21.036;2022-12-07T09:33:32;99460.44;;;3.53;86.02
35507;BME280;36461;52.018;21.036;2022-12-07T09:35:58;99453.09;;;3.58;85.96
35507;BME280;36461;52.018;21.036;2022-12-07T09:38:25;99458.13;;;3.62;85.88
35507;BME280;36461;52.018;21.036;2022-12-07T09:40:54;99453.83;;;3.64;85.69
35507;BME280;36461;52.018;21.036;2022-12-07T09:43:23;99455.08;;;3.66;85.68
35507;BME280;36461;52.018;21.036;2022-12-07T09:45:53;99451.12;;;3.72;85.71
35507;BME280;36461;52.018;21.036;2022-12-07T09:48:24;99446.33;;;3.76;85.50
35507;BME280;36461;52.018;21.036;2022-12-07T09:51:00;99451.50;;;3.75;85.20
35507;BME280;36461;52.018;21.036;2022-12-07T09:53:30;99451.84;;;3.77;85.48
35507;BME280;36461;52.018;21.036;2022-12-07T09:55:58;99450.53;;;3.80;85.52
35507;BME280;36461;52.018;21.036;2022-12-07T09:58:28;99451.33;;;3.82;85.33
35507;BME280;36461;52.018;21.036;2022-12-07T10:00:58;99448.69;;;3.87;85.32
35507;BME280;36461;52.018;21.036;2022-12-07T10:03:28;99451.14;;;3.92;85.37
35507;BME280;36461;52.018;21.036;2022-12-07T10:05:55;99448.12;;;3.94;85.35
35507;BME280;36461;52.018;21.036;2022-12-07T10:08:24;99449.91;;;3.90;85.05
35507;BME280;36461;52.018;21.036;2022-12-07T10:10:54;99442.23;;;3.89;84.92
35507;BME280;36461;52.018;21.036;2022-12-07T10:13:39;99435.89;;;3.84;84.93
35507;BME280;36461;52.018;21.036;2022-12-07T10:16:37;99433.70;;;3.86;85.09
35507;BME280;36461;52.018;21.036;2022-12-07T10:24:33;99429.73;;;3.93;85.02
35507;BME280;36461;52.018;21.036;2022-12-07T10:26:59;99433.52;;;3.96;85.00
35507;BME280;36461;52.018;21.036;2022-12-07T10:29:34;99436.42;;;4.00;84.87
35507;BME280;36461;52.018;21.036;2022-12-07T10:32:25;99433.48;;;3.97;84.77
35507;BME280;36461;52.018;21.036;2022-12-07T10:34:42;99438.09;;;4.02;85.04
35507;BME280;36461;52.018;21.036;2022-12-07T10:39:55;99444.47;;;4.04;84.72
35507;BME280;36461;52.018;21.036;2022-12-07T10:42:30;99444.95;;;4.02;84.58
35507;BME280;36461;52.018;21.036;2022-12-07T10:45:16;99446.70;;;4.00;84.41
35507;BME280;36461;52.018;21.036;2022-12-07T10:47:52;99440.35;;;3.97;84.59
35507;BME280;36461;52.018;21.036;2022-12-07T10:57:10;99440.61;;;3.84;84.88
35507;BME280;36461;52.018;21.036;2022-12-07T11:00:00;99444.14;;;3.79;84.90
35507;BME280;36461;52.018;21.036;2022-12-07T11:02:54;99445.05;;;3.76;84.84
35507;BME280;36461;52.018;21.036;2022-12-07T11:14:15;99438.88;;;3.85;84.93
35507;BME280;36461;52.018;21.036;2022-12-07T11:19:55;99427.63;;;3.92;84.97
35507;BME280;36461;52.018;21.036;2022-12-07T11:22:38;99435.67;;;3.95;84.88
35507;BME280;36461;52.018;21.036;2022-12-07T11:28:57;99427.02;;;4.00;85.02
35507;BME280;36461;52.018;21.036;2022-12-07T11:34:36;99431.89;;;3.92;84.88
35507;BME280;36461;52.018;21.036;2022-12-07T11:37:21;99427.66;;;3.89;84.94
35507;BME280;36461;52.018;21.036;2022-12-07T11:39:55;99427.80;;;3.83;84.65
35507;BME280;36461;52.018;21.036;2022-12-07T11:42:35;99425.83;;;3.73;84.77
35507;BME280;36461;52.018;21.036;2022-12-07T11:45:17;99426.35;;;3.69;85.05
35507;BME280;36461;52.018;21.036;2022-12-07T11:50:57;99423.58;;;3.58;84.77
35507;BME280;36461;52.018;21.036;2022-12-07T11:53:23;99425.45;;;3.49;84.97
35507;BME280;36461;52.018;21.036;2022-12-07T11:56:15;99421.64;;;3.46;85.09
35507;BME280;36461;52.018;21.036;2022-12-07T12:04:32;99426.53;;;3.60;85.45
35507;BME280;36461;52.018;21.036;2022-12-07T12:07:01;99421.26;;;3.68;85.55
35507;BME280;36461;52.018;21.036;2022-12-07T12:09:31;99414.66;;;3.76;85.58
35507;BME280;36461;52.018;21.036;2022-12-07T12:12:06;99411.42;;;3.89;85.55
35507;BME280;36461;52.018;21.036;2022-12-07T12:20:44;99409.47;;;4.00;85.29
35507;BME280;36461;52.018;21.036;2022-12-07T12:23:16;99407.65;;;4.05;85.31
35507;BME280;36461;52.018;21.036;2022-12-07T12:25:48;99400.23;;;4.12;85.14
35507;BME280;36461;52.018;21.036;2022-12-07T12:31:16;99405.67;;;4.18;85.17
35507;BME280;36461;52.018;21.036;2022-12-07T12:33:52;99399.17;;;4.21;84.81
35507;BME280;36461;52.018;21.036;2022-12-07T12:39:17;99395.52;;;4.12;84.79
35507;BME280;36461;52.018;21.036;2022-12-07T12:46:57;99388.47;;;3.81;84.87
35507;BME280;36461;52.018;21.036;2022-12-07T12:55:12;99386.30;;;3.61;85.10
35507;BME280;36461;52.018;21.036;2022-12-07T12:57:39;99382.63;;;3.51;85.04
35507;BME280;36461;52.018;21.036;2022-12-07T13:00:21;99385.72;;;3.48;85.14
35507;BME280;36461;52.018;21.036;2022-12-07T13:02:53;99381.45;;;3.47;85.15
35507;BME280;36461;52.018;21.036;2022-12-07T13:05:23;99377.56;;;3.48;85.32
35507;BME280;36461;52.018;21.036;2022-12-07T13:08:15;99375.83;;;3.49;85.49
35507;BME280;36461;52.018;21.036;2022-12-07T13:10:45;99377.95;;;3.51;85.60
35507;BME280;36461;52.018;21.036;2022-12-07T13:15:50;99378.78;;;3.51;85.60
35507;BME280;36461;52.018;21.036;2022-12-07T13:26:39;99379.23;;;3.51;85.50
35507;BME280;36461;52.018;21.036;2022-12-07T13:29:21;99377.46;;;3.53;85.64
35507;BME280;36461;52.018;21.036;2022-12-07T13:31:51;99376.22;;;3.51;85.55
35507;BME280;36461;52.018;21.036;2022-12-07T13:34:36;99377.46;;;3.53;85.59
35507;BME280;36461;52.018;21.036;2022-12-07T13:37:10;99373.95;;;3.57;85.88
35507;BME280;36461;52.018;21.036;2022-12-07T13:39:47;99364.36;;;3.46;85.31
35507;BME280;36461;52.018;21.036;2022-12-07T13:42:28;99369.56;;;3.43;85.27
35507;BME280;36461;52.018;21.036;2022-12-07T13:44:59;99368.77;;;3.39;85.29
35507;BME280;36461;52.018;21.036;2022-12-07T13:47:41;99369.73;;;3.33;85.47
35507;BME280;36461;52.018;21.036;2022-12-07T13:50:25;99375.31;;;3.31;85.49
35507;BME280;36461;52.018;21.036;2022-12-07T13:52:57;99382.73;;;3.24;85.27
35507;BME280;36461;52.018;21.036;2022-12-07T13:55:25;99384.45;;;3.22;85.56
35507;BME280;36461;52.018;21.036;2022-12-07T13:57:53;99386.25;;;3.18;85.60
35507;BME280;36461;52.018;21.036;2022-12-07T14:00:23;99387.92;;;3.21;85.63
35507;BME280;36461;52.018;21.036;2022-12-07T14:05:43;99391.00;;;3.16;85.53
35507;BME280;36461;52.018;21.036;2022-12-07T14:13:34;99384.63;;;3.14;85.57
35507;BME280;36461;52.018;21.036;2022-12-07T14:19:00;99377.86;;;3.10;85.60
35507;BME280;36461;52.018;21.036;2022-12-07T14:21:33;99384.30;;;3.07;85.69
35507;BME280;36461;52.018;21.036;2022-12-07T14:24:21;99391.58;;;3.08;85.74
35507;BME280;36461;52.018;21.036;2022-12-07T14:26:49;99388.59;;;3.07;85.54
35507;BME280;36461;52.018;21.036;2022-12-07T14:31:56;99392.48;;;3.05;85.43
35507;BME280;36461;52.018;21.036;2022-12-07T14:34:24;99387.38;;;3.02;85.43
35507;BME280;36461;52.018;21.036;2022-12-07T14:36:51;99389.52;;;3.02;85.63
35507;BME280;36461;52.018;21.036;2022-12-07T14:39:18;99388.27;;;3.01;85.23
35507;BME280;36461;52.018;21.036;2022-12-07T14:41:45;99387.50;;;2.96;85.32
35507;BME280;36461;52.018;21.036;2022-12-07T14:44:21;99386.22;;;2.96;85.41
35507;BME280;36461;52.018;21.036;2022-12-07T14:46:49;99394.78;;;2.95;85.52
35507;BME280;36461;52.018;21.036;2022-12-07T14:49:17;99394.06;;;2.87;85.06
35507;BME280;36461;52.018;21.036;2022-12-07T14:51:46;99393.29;;;2.81;85.28
35507;BME280;36461;52.018;21.036;2022-12-07T14:54:18;99395.41;;;2.83;85.44
35507;BME280;36461;52.018;21.036;2022-12-07T14:56:46;99394.98;;;2.82;85.45
35507;BME280;36461;52.018;21.036;2022-12-07T14:59:17;99397.19;;;2.78;85.40
35507;BME280;36461;52.018;21.036;2022-12-07T15:01:45;99395.64;;;2.68;85.11
35507;BME280;36461;52.018;21.036;2022-12-07T15:04:12;99393.14;;;2.65;85.25
35507;BME280;36461;52.018;21.036;2022-12-07T15:06:38;99388.06;;;2.60;85.30
35507;BME280;36461;52.018;21.036;2022-12-07T15:09:05;99387.65;;;2.61;85.31
35507;BME280;36461;52.018;21.036;2022-12-07T15:11:32;99390.23;;;2.58;85.21
35507;BME280;36461;52.018;21.036;2022-12-07T15:13:59;99375.81;;;2.52;85.23
35507;BME280;36461;52.018;21.036;2022-12-07T15:16:36;99387.28;;;2.55;85.58